sensor_id;sensor_type;location;lat;lon;timestamp;temperature;humidity
76567;DHT22;65428;53.194;6.132;2023-09-12T00:02:08;20.50;99.90
76567;DHT22;65428;53.194;6.132;2023-09-12T00:04:35;20.00;99.90
76567;DHT22;65428;53.194;6.132;2023-09-12T00:07:00;19.90;99.90
76567;DHT22;65428;53.194;6.132;2023-09-12T00:09:26;20.10;99.90
76567;DHT22;65428;53.194;6.132;2023-09-12T00:11:53;20.00;99.90
76567;DHT22;65428;53.194;6.132;2023-09-12T00:14:19;20.10;99.90
76567;DHT22;65428;53.194;6.132;2023-09-12T00:16:45;20.40;99.90
76567;DHT22;65428;53.194;6.132;2023-09-12T00:19:10;19.90;99.90
76567;DHT22;65428;53.194;6.132;2023-09-12T00:21:36;19.90;99.90
76567;DHT22;65428;53.194;6.132;2023-09-12T00:24:02;19.90;99.90
76567;DHT22;65428;53.194;6.132;2023-09-12T00:26:28;19.90;99.90
76567;DHT22;65428;53.194;6.132;2023-09-12T00:28:56;20.20;99.90
76567;DHT22;65428;53.194;6.132;2023-09-12T00:31:21;20.00;99.90
76567;DHT22;65428;53.194;6.132;2023-09-12T00:33:47;19.70;99.90
76567;DHT22;65428;53.194;6.132;2023-09-12T00:36:13;19.60;99.90
76567;DHT22;65428;53.194;6.132;2023-09-12T00:38:38;19.60;99.90
76567;DHT22;65428;53.194;6.132;2023-09-12T00:41:04;19.60;99.90
76567;DHT22;65428;53.194;6.132;2023-09-12T00:43:30;19.60;99.90
76567;DHT22;65428;53.194;6.132;2023-09-12T00:45:55;19.80;99.90
76567;DHT22;65428;53.194;6.132;2023-09-12T00:48:22;20.10;99.90
76567;DHT22;65428;53.194;6.132;2023-09-12T00:50:49;19.70;99.90
76567;DHT22;65428;53.194;6.132;2023-09-12T00:53:16;19.60;99.90
76567;DHT22;65428;53.194;6.132;2023-09-12T00:55:50;19.50;99.90
76567;DHT22;65428;53.194;6.132;2023-09-12T00:58:17;19.40;99.90
76567;DHT22;65428;53.194;6.132;2023-09-12T01:00:43;19.40;99.90
76567;DHT22;65428;53.194;6.132;2023-09-12T01:03:08;19.40;99.90
76567;DHT22;65428;53.194;6.132;2023-09-12T01:05:35;19.90;99.90
76567;DHT22;65428;53.194;6.132;2023-09-12T01:08:01;19.60;99.90
76567;DHT22;65428;53.194;6.132;2023-09-12T01:10:27;19.40;99.90
76567;DHT22;65428;53.194;6.132;2023-09-12T01:12:53;19.70;99.90
76567;DHT22;65428;53.194;6.132;2023-09-12T01:15:18;19.20;99.90
76567;DHT22;65428;53.194;6.132;2023-09-12T01:17:45;19.50;99.90
76567;DHT22;65428;53.194;6.132;2023-09-12T01:20:16;19.40;99.90
76567;DHT22;65428;53.194;6.132;2023-09-12T01:28:06;19.30;99.90
76567;DHT22;65428;53.194;6.132;2023-09-12T01:30:34;19.50;99.90
76567;DHT22;65428;53.194;6.132;2023-09-12T01:33:00;19.30;99.90
76567;DHT22;65428;53.194;6.132;2023-09-12T01:35:26;19.00;99.90
76567;DHT22;65428;53.194;6.132;2023-09-12T01:37:52;18.80;99.90
76567;DHT22;65428;53.194;6.132;2023-09-12T01:41:02;19.30;99.90
76567;DHT22;65428;53.194;6.132;2023-09-12T01:43:09;19.50;99.90
76567;DHT22;65428;53.194;6.132;2023-09-12T01:45:35;19.30;99.90
76567;DHT22;65428;53.194;6.132;2023-09-12T01:48:04;19.70;99.90
76567;DHT22;65428;53.194;6.132;2023-09-12T01:50:30;19.20;99.90
76567;DHT22;65428;53.194;6.132;2023-09-12T01:52:56;19.10;99.90
76567;DHT22;65428;53.194;6.132;2023-09-12T01:55:23;19.00;99.90
76567;DHT22;65428;53.194;6.132;2023-09-12T01:57:50;18.90;99.90
76567;DHT22;65428;53.194;6.132;2023-09-12T02:00:18;18.90;99.90
76567;DHT22;65428;53.194;6.132;2023-09-12T02:02:44;19.30;99.90
76567;DHT22;65428;53.194;6.132;2023-09-12T02:05:21;19.20;99.90
76567;DHT22;65428;53.194;6.132;2023-09-12T02:07:48;18.70;99.90
76567;DHT22;65428;53.194;6.132;2023-09-12T02:10:14;18.90;99.90
76567;DHT22;65428;53.194;6.132;2023-09-12T02:12:40;18.70;99.90
76567;DHT22;65428;53.194;6.132;2023-09-12T02:15:06;19.00;99.90
76567;DHT22;65428;53.194;6.132;2023-09-12T02:17:32;18.50;99.90
76567;DHT22;65428;53.194;6.132;2023-09-12T02:19:57;18.50;99.90
76567;DHT22;65428;53.194;6.132;2023-09-12T02:22:23;18.40;99.90
76567;DHT22;65428;53.194;6.132;2023-09-12T02:24:49;18.40;99.90
76567;DHT22;65428;53.194;6.132;2023-09-12T02:27:15;18.30;99.90
76567;DHT22;65428;53.194;6.132;2023-09-12T02:29:41;18.70;99.90
76567;DHT22;65428;53.194;6.132;2023-09-12T02:32:07;18.70;99.90
76567;DHT22;65428;53.194;6.132;2023-09-12T02:34:33;18.50;99.90
76567;DHT22;65428;53.194;6.132;2023-09-12T02:36:59;18.20;99.90
76567;DHT22;65428;53.194;6.132;2023-09-12T02:39:25;18.40;99.90
76567;DHT22;65428;53.194;6.132;2023-09-12T02:41:50;18.10;99.90
76567;DHT22;65428;53.194;6.132;2023-09-12T02:44:16;17.90;99.90
76567;DHT22;65428;53.194;6.132;2023-09-12T02:46:42;18.40;99.90
76567;DHT22;65428;53.194;6.132;2023-09-12T02:49:07;18.00;99.90
76567;DHT22;65428;53.194;6.132;2023-09-12T02:51:33;18.00;99.90
76567;DHT22;65428;53.194;6.132;2023-09-12T02:53:59;18.00;99.90
76567;DHT22;65428;53.194;6.132;2023-09-12T02:56:24;17.80;99.90
76567;DHT22;65428;53.194;6.132;2023-09-12T02:58:50;17.90;99.90
76567;DHT22;65428;53.194;6.132;2023-09-12T03:01:19;17.80;99.90
76567;DHT22;65428;53.194;6.132;2023-09-12T03:03:46;18.10;99.90
76567;DHT22;65428;53.194;6.132;2023-09-12T03:06:12;17.90;99.90
76567;DHT22;65428;53.194;6.132;2023-09-12T03:08:39;17.80;99.90
76567;DHT22;65428;53.194;6.132;2023-09-12T03:11:05;17.90;99.90
76567;DHT22;65428;53.194;6.132;2023-09-12T03:13:33;18.00;99.90
76567;DHT22;65428;53.194;6.132;2023-09-12T03:15:59;17.90;99.90
76567;DHT22;65428;53.194;6.132;2023-09-12T03:18:25;17.90;99.90
76567;DHT22;65428;53.194;6.132;2023-09-12T03:20:50;18.20;99.90
76567;DHT22;65428;53.194;6.132;2023-09-12T03:23:16;18.30;99.90
76567;DHT22;65428;53.194;6.132;2023-09-12T03:25:41;18.00;99.90
76567;DHT22;65428;53.194;6.132;2023-09-12T03:28:07;18.50;99.90
76567;DHT22;65428;53.194;6.132;2023-09-12T03:30:35;18.20;99.90
76567;DHT22;65428;53.194;6.132;2023-09-12T03:33:00;18.00;99.90
76567;DHT22;65428;53.194;6.132;2023-09-12T03:35:28;18.40;99.90
76567;DHT22;65428;53.194;6.132;2023-09-12T03:37:54;18.20;99.90
76567;DHT22;65428;53.194;6.132;2023-09-12T03:40:20;17.90;99.90
76567;DHT22;65428;53.194;6.132;2023-09-12T03:42:45;18.10;99.90
76567;DHT22;65428;53.194;6.132;2023-09-12T03:45:11;18.10;99.90
76567;DHT22;65428;53.194;6.132;2023-09-12T03:47:37;18.20;99.90
76567;DHT22;65428;53.194;6.132;2023-09-12T03:50:03;18.30;99.90
76567;DHT22;65428;53.194;6.132;2023-09-12T03:52:29;18.20;99.90
76567;DHT22;65428;53.194;6.132;2023-09-12T03:54:55;18.20;99.90
76567;DHT22;65428;53.194;6.132;2023-09-12T03:57:20;18.20;99.90
76567;DHT22;65428;53.194;6.132;2023-09-12T03:59:46;18.20;99.90
76567;DHT22;65428;53.194;6.132;2023-09-12T04:02:12;18.00;99.90
76567;DHT22;65428;53.194;6.132;2023-09-12T04:04:38;18.60;99.90
76567;DHT22;65428;53.194;6.132;2023-09-12T04:07:04;18.20;99.90
76567;DHT22;65428;53.194;6.132;2023-09-12T04:09:30;18.10;99.90
76567;DHT22;65428;53.194;6.132;2023-09-12T04:11:56;18.00;99.90
76567;DHT22;65428;53.194;6.132;2023-09-12T04:14:21;18.50;99.90
76567;DHT22;65428;53.194;6.132;2023-09-12T04:16:47;18.10;99.90
76567;DHT22;65428;53.194;6.132;2023-09-12T04:19:14;17.90;99.90
76567;DHT22;65428;53.194;6.132;2023-09-12T04:21:40;18.10;99.90
76567;DHT22;65428;53.194;6.132;2023-09-12T04:24:06;18.30;99.90
76567;DHT22;65428;53.194;6.132;2023-09-12T04:26:32;18.10;99.90
76567;DHT22;65428;53.194;6.132;2023-09-12T04:28:58;18.00;99.90
76567;DHT22;65428;53.194;6.132;2023-09-12T04:31:24;18.30;99.90
76567;DHT22;65428;53.194;6.132;2023-09-12T04:33:53;18.30;99.90
76567;DHT22;65428;53.194;6.132;2023-09-12T04:36:20;18.00;99.90
76567;DHT22;65428;53.194;6.132;2023-09-12T04:38:46;18.00;99.90
76567;DHT22;65428;53.194;6.132;2023-09-12T04:41:13;17.90;99.90
76567;DHT22;65428;53.194;6.132;2023-09-12T04:43:42;18.00;99.90
76567;DHT22;65428;53.194;6.132;2023-09-12T04:46:10;18.10;99.90
76567;DHT22;65428;53.194;6.132;2023-09-12T04:48:36;18.00;99.90
76567;DHT22;65428;53.194;6.132;2023-09-12T04:51:01;18.50;99.90
76567;DHT22;65428;53.194;6.132;2023-09-12T04:53:28;18.00;99.90
76567;DHT22;65428;53.194;6.132;2023-09-12T04:55:59;18.00;99.90
76567;DHT22;65428;53.194;6.132;2023-09-12T04:58:25;18.00;99.90
76567;DHT22;65428;53.194;6.132;2023-09-12T05:00:50;18.30;99.90
76567;DHT22;65428;53.194;6.132;2023-09-12T05:03:16;18.00;99.90
76567;DHT22;65428;53.194;6.132;2023-09-12T05:05:42;17.90;99.90
76567;DHT22;65428;53.194;6.132;2023-09-12T05:08:10;18.00;99.90
76567;DHT22;65428;53.194;6.132;2023-09-12T05:10:37;18.00;99.90
76567;DHT22;65428;53.194;6.132;2023-09-12T05:13:04;18.00;99.90
76567;DHT22;65428;53.194;6.132;2023-09-12T05:15:30;18.00;99.90
76567;DHT22;65428;53.194;6.132;2023-09-12T05:17:55;18.00;99.90
76567;DHT22;65428;53.194;6.132;2023-09-12T05:20:21;17.70;99.90
76567;DHT22;65428;53.194;6.132;2023-09-12T05:22:46;18.60;99.90
76567;DHT22;65428;53.194;6.132;2023-09-12T05:25:12;18.00;99.90
76567;DHT22;65428;53.194;6.132;2023-09-12T05:27:38;18.10;99.90
76567;DHT22;65428;53.194;6.132;2023-09-12T05:30:04;18.50;99.90
76567;DHT22;65428;53.194;6.132;2023-09-12T05:32:30;18.10;99.90
76567;DHT22;65428;53.194;6.132;2023-09-12T05:34:56;18.10;99.90
76567;DHT22;65428;53.194;6.132;2023-09-12T05:37:22;18.20;99.90
76567;DHT22;65428;53.194;6.132;2023-09-12T05:39:47;17.90;99.90
76567;DHT22;65428;53.194;6.132;2023-09-12T05:42:13;18.20;99.90
76567;DHT22;65428;53.194;6.132;2023-09-12T05:44:41;18.20;99.90
76567;DHT22;65428;53.194;6.132;2023-09-12T05:47:08;18.30;99.90
76567;DHT22;65428;53.194;6.132;2023-09-12T05:49:33;18.50;99.90
76567;DHT22;65428;53.194;6.132;2023-09-12T05:51:59;18.70;99.90
76567;DHT22;65428;53.194;6.132;2023-09-12T05:54:25;18.40;99.90
76567;DHT22;65428;53.194;6.132;2023-09-12T05:56:51;19.00;99.90
76567;DHT22;65428;53.194;6.132;2023-09-12T05:59:18;18.50;99.90
76567;DHT22;65428;53.194;6.132;2023-09-12T06:01:44;18.50;99.90
76567;DHT22;65428;53.194;6.132;2023-09-12T06:04:10;18.50;99.90
76567;DHT22;65428;53.194;6.132;2023-09-12T06:06:36;18.70;99.90
76567;DHT22;65428;53.194;6.132;2023-09-12T06:09:02;18.60;99.90
76567;DHT22;65428;53.194;6.132;2023-09-12T06:11:29;18.60;99.90
76567;DHT22;65428;53.194;6.132;2023-09-12T06:13:54;18.60;99.90
76567;DHT22;65428;53.194;6.132;2023-09-12T06:16:21;18.70;99.90
76567;DHT22;65428;53.194;6.132;2023-09-12T06:18:47;18.70;99.90
76567;DHT22;65428;53.194;6.132;2023-09-12T06:21:14;18.70;99.90
76567;DHT22;65428;53.194;6.132;2023-09-12T06:23:39;19.20;99.90
76567;DHT22;65428;53.194;6.132;2023-09-12T06:26:05;19.20;99.90
76567;DHT22;65428;53.194;6.132;2023-09-12T06:28:31;18.80;99.90
76567;DHT22;65428;53.194;6.132;2023-09-12T06:30:57;19.00;99.90
76567;DHT22;65428;53.194;6.132;2023-09-12T06:33:25;18.90;99.90
76567;DHT22;65428;53.194;6.132;2023-09-12T06:35:51;19.10;99.90
76567;DHT22;65428;53.194;6.132;2023-09-12T06:38:22;18.80;99.90
76567;DHT22;65428;53.194;6.132;2023-09-12T06:40:49;19.10;99.90
76567;DHT22;65428;53.194;6.132;2023-09-12T06:43:14;19.30;99.90
76567;DHT22;65428;53.194;6.132;2023-09-12T06:45:41;19.00;99.90
76567;DHT22;65428;53.194;6.132;2023-09-12T06:48:06;19.00;99.90
76567;DHT22;65428;53.194;6.132;2023-09-12T06:50:32;19.50;99.90
76567;DHT22;65428;53.194;6.132;2023-09-12T06:52:58;19.30;99.90
76567;DHT22;65428;53.194;6.132;2023-09-12T06:55:24;19.10;99.90
76567;DHT22;65428;53.194;6.132;2023-09-12T06:57:50;19.10;99.90
76567;DHT22;65428;53.194;6.132;2023-09-12T07:00:16;19.10;99.90
76567;DHT22;65428;53.194;6.132;2023-09-12T07:02:42;19.10;99.90
76567;DHT22;65428;53.194;6.132;2023-09-12T07:05:08;19.10;99.90
76567;DHT22;65428;53.194;6.132;2023-09-12T07:07:34;19.10;99.90
76567;DHT22;65428;53.194;6.132;2023-09-12T07:09:59;19.40;99.90
76567;DHT22;65428;53.194;6.132;2023-09-12T07:12:28;19.20;99.90
76567;DHT22;65428;53.194;6.132;2023-09-12T07:14:54;19.60;99.90
76567;DHT22;65428;53.194;6.132;2023-09-12T07:17:21;19.20;99.90
76567;DHT22;65428;53.194;6.132;2023-09-12T07:19:47;19.30;99.90
76567;DHT22;65428;53.194;6.132;2023-09-12T07:22:13;19.50;99.90
76567;DHT22;65428;53.194;6.132;2023-09-12T07:24:38;19.30;99.90
76567;DHT22;65428;53.194;6.132;2023-09-12T07:27:04;19.30;99.90
76567;DHT22;65428;53.194;6.132;2023-09-12T07:29:30;19.20;99.90
76567;DHT22;65428;53.194;6.132;2023-09-12T07:31:56;19.40;99.90
76567;DHT22;65428;53.194;6.132;2023-09-12T07:34:23;19.50;99.90
76567;DHT22;65428;53.194;6.132;2023-09-12T07:36:49;19.50;99.90
76567;DHT22;65428;53.194;6.132;2023-09-12T07:39:17;19.60;99.90
76567;DHT22;65428;53.194;6.132;2023-09-12T07:41:43;19.70;99.90
76567;DHT22;65428;53.194;6.132;2023-09-12T07:44:09;20.20;99.90
76567;DHT22;65428;53.194;6.132;2023-09-12T07:46:37;20.40;99.90
76567;DHT22;65428;53.194;6.132;2023-09-12T07:49:03;20.20;99.90
76567;DHT22;65428;53.194;6.132;2023-09-12T07:51:29;20.20;99.90
76567;DHT22;65428;53.194;6.132;2023-09-12T07:53:54;20.30;99.90
76567;DHT22;65428;53.194;6.132;2023-09-12T07:56:20;20.30;99.90
76567;DHT22;65428;53.194;6.132;2023-09-12T07:58:46;20.40;99.90
76567;DHT22;65428;53.194;6.132;2023-09-12T08:01:11;20.80;99.90
76567;DHT22;65428;53.194;6.132;2023-09-12T08:03:39;20.90;99.90
76567;DHT22;65428;53.194;6.132;2023-09-12T08:06:05;20.60;99.90
76567;DHT22;65428;53.194;6.132;2023-09-12T08:08:31;20.60;99.90
76567;DHT22;65428;53.194;6.132;2023-09-12T08:10:57;20.70;99.90
76567;DHT22;65428;53.194;6.132;2023-09-12T08:13:25;20.70;99.90
76567;DHT22;65428;53.194;6.132;2023-09-12T08:15:51;20.80;99.90
76567;DHT22;65428;53.194;6.132;2023-09-12T08:18:17;20.90;99.90
76567;DHT22;65428;53.194;6.132;2023-09-12T08:20:43;21.00;99.90
76567;DHT22;65428;53.194;6.132;2023-09-12T08:23:09;21.00;99.90
76567;DHT22;65428;53.194;6.132;2023-09-12T08:25:35;21.10;99.90
76567;DHT22;65428;53.194;6.132;2023-09-12T08:28:00;21.20;99.90
76567;DHT22;65428;53.194;6.132;2023-09-12T08:30:26;21.30;99.90
76567;DHT22;65428;53.194;6.132;2023-09-12T08:32:55;21.70;99.90
76567;DHT22;65428;53.194;6.132;2023-09-12T08:35:21;21.10;99.90
76567;DHT22;65428;53.194;6.132;2023-09-12T08:37:47;21.80;99.90
76567;DHT22;65428;53.194;6.132;2023-09-12T08:40:13;21.20;99.90
76567;DHT22;65428;53.194;6.132;2023-09-12T08:42:43;21.40;99.90
76567;DHT22;65428;53.194;6.132;2023-09-12T08:45:13;21.30;99.90
76567;DHT22;65428;53.194;6.132;2023-09-12T08:47:41;21.20;99.90
76567;DHT22;65428;53.194;6.132;2023-09-12T08:50:11;21.40;99.90
76567;DHT22;65428;53.194;6.132;2023-09-12T08:52:42;21.50;99.90
76567;DHT22;65428;53.194;6.132;2023-09-12T08:55:12;21.60;99.90
76567;DHT22;65428;53.194;6.132;2023-09-12T08:57:40;21.80;99.90
76567;DHT22;65428;53.194;6.132;2023-09-12T09:00:07;21.70;99.90
76567;DHT22;65428;53.194;6.132;2023-09-12T09:02:45;21.70;99.90
76567;DHT22;65428;53.194;6.132;2023-09-12T09:05:11;21.80;99.90
76567;DHT22;65428;53.194;6.132;2023-09-12T09:07:38;22.40;99.90
76567;DHT22;65428;53.194;6.132;2023-09-12T09:10:06;22.10;99.90
76567;DHT22;65428;53.194;6.132;2023-09-12T09:12:33;22.30;99.90
76567;DHT22;65428;53.194;6.132;2023-09-12T09:15:23;22.50;99.90
76567;DHT22;65428;53.194;6.132;2023-09-12T09:17:49;22.70;99.90
76567;DHT22;65428;53.194;6.132;2023-09-12T09:20:30;22.80;99.90
76567;DHT22;65428;53.194;6.132;2023-09-12T09:23:00;22.80;99.90
76567;DHT22;65428;53.194;6.132;2023-09-12T09:25:27;22.90;99.90
76567;DHT22;65428;53.194;6.132;2023-09-12T09:27:52;23.20;99.90
76567;DHT22;65428;53.194;6.132;2023-09-12T09:30:25;23.00;99.90
76567;DHT22;65428;53.194;6.132;2023-09-12T09:33:04;23.10;99.90
76567;DHT22;65428;53.194;6.132;2023-09-12T09:35:29;23.20;99.90
76567;DHT22;65428;53.194;6.132;2023-09-12T09:37:56;23.30;99.90
76567;DHT22;65428;53.194;6.132;2023-09-12T09:40:22;23.90;99.90
76567;DHT22;65428;53.194;6.132;2023-09-12T09:42:53;23.20;99.90
76567;DHT22;65428;53.194;6.132;2023-09-12T09:45:19;23.20;99.90
76567;DHT22;65428;53.194;6.132;2023-09-12T09:47:45;23.10;99.90
76567;DHT22;65428;53.194;6.132;2023-09-12T09:50:14;23.00;99.90
76567;DHT22;65428;53.194;6.132;2023-09-12T09:52:40;23.00;99.90
76567;DHT22;65428;53.194;6.132;2023-09-12T09:55:13;22.90;99.90
76567;DHT22;65428;53.194;6.132;2023-09-12T09:57:40;23.00;99.90
76567;DHT22;65428;53.194;6.132;2023-09-12T10:00:07;23.10;99.90
76567;DHT22;65428;53.194;6.132;2023-09-12T10:02:38;23.20;99.90
76567;DHT22;65428;53.194;6.132;2023-09-12T10:05:05;23.30;99.90
76567;DHT22;65428;53.194;6.132;2023-09-12T10:07:37;23.50;99.90
76567;DHT22;65428;53.194;6.132;2023-09-12T10:10:03;23.50;99.90
76567;DHT22;65428;53.194;6.132;2023-09-12T10:12:36;23.60;99.90
76567;DHT22;65428;53.194;6.132;2023-09-12T10:15:03;23.50;99.90
76567;DHT22;65428;53.194;6.132;2023-09-12T10:17:36;23.90;99.90
76567;DHT22;65428;53.194;6.132;2023-09-12T10:20:03;24.40;99.90
76567;DHT22;65428;53.194;6.132;2023-09-12T10:22:39;24.40;99.90
76567;DHT22;65428;53.194;6.132;2023-09-12T10:25:08;25.10;99.90
76567;DHT22;65428;53.194;6.132;2023-09-12T10:27:34;24.90;99.90
76567;DHT22;65428;53.194;6.132;2023-09-12T10:30:02;25.50;99.90
76567;DHT22;65428;53.194;6.132;2023-09-12T10:32:28;25.30;99.90
76567;DHT22;65428;53.194;6.132;2023-09-12T10:34:58;25.40;99.90
76567;DHT22;65428;53.194;6.132;2023-09-12T10:37:26;25.60;99.90
76567;DHT22;65428;53.194;6.132;2023-09-12T10:39:54;25.90;99.90
76567;DHT22;65428;53.194;6.132;2023-09-12T10:42:22;25.90;99.90
76567;DHT22;65428;53.194;6.132;2023-09-12T10:44:50;26.20;99.90
76567;DHT22;65428;53.194;6.132;2023-09-12T10:47:17;26.40;99.90
76567;DHT22;65428;53.194;6.132;2023-09-12T10:49:44;26.20;99.90
76567;DHT22;65428;53.194;6.132;2023-09-12T10:52:10;26.10;99.90
76567;DHT22;65428;53.194;6.132;2023-09-12T10:54:39;26.10;99.90
76567;DHT22;65428;53.194;6.132;2023-09-12T10:57:10;26.00;99.90
76567;DHT22;65428;53.194;6.132;2023-09-12T11:02:29;25.90;99.90
76567;DHT22;65428;53.194;6.132;2023-09-12T11:04:55;25.80;99.90
76567;DHT22;65428;53.194;6.132;2023-09-12T11:07:44;26.40;99.90
76567;DHT22;65428;53.194;6.132;2023-09-12T11:12:40;26.00;99.90
76567;DHT22;65428;53.194;6.132;2023-09-12T11:15:07;26.00;99.90
76567;DHT22;65428;53.194;6.132;2023-09-12T11:17:37;26.00;99.90
76567;DHT22;65428;53.194;6.132;2023-09-12T11:20:04;25.90;99.90
76567;DHT22;65428;53.194;6.132;2023-09-12T11:22:40;26.00;99.90
76567;DHT22;65428;53.194;6.132;2023-09-12T11:25:27;26.20;99.90
76567;DHT22;65428;53.194;6.132;2023-09-12T11:30:20;25.80;99.90
76567;DHT22;65428;53.194;6.132;2023-09-12T11:32:51;26.00;97.50
76567;DHT22;65428;53.194;6.132;2023-09-12T11:35:22;25.80;99.40
76567;DHT22;65428;53.194;6.132;2023-09-12T11:37:50;26.00;99.90
76567;DHT22;65428;53.194;6.132;2023-09-12T11:40:25;26.30;99.90
76567;DHT22;65428;53.194;6.132;2023-09-12T11:42:51;26.70;97.60
76567;DHT22;65428;53.194;6.132;2023-09-12T11:45:21;27.00;99.00
76567;DHT22;65428;53.194;6.132;2023-09-12T11:47:47;27.40;99.00
76567;DHT22;65428;53.194;6.132;2023-09-12T11:50:31;27.80;92.10
76567;DHT22;65428;53.194;6.132;2023-09-12T11:53:07;28.10;83.40
76567;DHT22;65428;53.194;6.132;2023-09-12T11:55:48;28.20;80.70
76567;DHT22;65428;53.194;6.132;2023-09-12T11:58:15;28.60;94.40
76567;DHT22;65428;53.194;6.132;2023-09-12T12:03:15;29.10;79.10
76567;DHT22;65428;53.194;6.132;2023-09-12T12:05:41;28.60;78.60
76567;DHT22;65428;53.194;6.132;2023-09-12T12:08:08;28.00;80.80
76567;DHT22;65428;53.194;6.132;2023-09-12T12:10:34;27.30;86.00
76567;DHT22;65428;53.194;6.132;2023-09-12T12:13:01;26.80;91.90
76567;DHT22;65428;53.194;6.132;2023-09-12T12:15:30;26.10;94.30
76567;DHT22;65428;53.194;6.132;2023-09-12T12:17:55;25.50;99.70
76567;DHT22;65428;53.194;6.132;2023-09-12T12:20:22;25.20;99.90
76567;DHT22;65428;53.194;6.132;2023-09-12T12:22:48;25.20;99.90
76567;DHT22;65428;53.194;6.132;2023-09-12T12:25:14;25.10;99.90
76567;DHT22;65428;53.194;6.132;2023-09-12T12:27:42;25.30;99.90
76567;DHT22;65428;53.194;6.132;2023-09-12T12:30:12;24.80;99.90
76567;DHT22;65428;53.194;6.132;2023-09-12T12:32:46;24.80;99.90
76567;DHT22;65428;53.194;6.132;2023-09-12T12:35:22;24.80;99.90
76567;DHT22;65428;53.194;6.132;2023-09-12T12:37:49;24.90;99.90
76567;DHT22;65428;53.194;6.132;2023-09-12T12:40:16;25.00;99.90
76567;DHT22;65428;53.194;6.132;2023-09-12T12:42:43;25.10;99.90
76567;DHT22;65428;53.194;6.132;2023-09-12T12:45:17;24.90;99.90
76567;DHT22;65428;53.194;6.132;2023-09-12T12:47:43;24.90;99.90
76567;DHT22;65428;53.194;6.132;2023-09-12T12:50:16;25.00;99.90
76567;DHT22;65428;53.194;6.132;2023-09-12T12:52:45;25.40;99.90
76567;DHT22;65428;53.194;6.132;2023-09-12T12:55:12;25.80;99.90
76567;DHT22;65428;53.194;6.132;2023-09-12T12:57:39;26.30;99.70
76567;DHT22;65428;53.194;6.132;2023-09-12T13:00:09;27.00;95.00
76567;DHT22;65428;53.194;6.132;2023-09-12T13:02:40;27.30;97.60
76567;DHT22;65428;53.194;6.132;2023-09-12T13:05:28;28.00;95.40
76567;DHT22;65428;53.194;6.132;2023-09-12T13:07:54;28.50;84.00
76567;DHT22;65428;53.194;6.132;2023-09-12T13:10:21;28.30;77.10
76567;DHT22;65428;53.194;6.132;2023-09-12T13:12:48;28.00;77.20
76567;DHT22;65428;53.194;6.132;2023-09-12T13:15:14;27.60;73.80
76567;DHT22;65428;53.194;6.132;2023-09-12T13:17:41;27.40;80.00
76567;DHT22;65428;53.194;6.132;2023-09-12T13:20:08;27.60;78.70
76567;DHT22;65428;53.194;6.132;2023-09-12T13:22:34;27.70;74.80
76567;DHT22;65428;53.194;6.132;2023-09-12T13:25:00;27.90;79.60
76567;DHT22;65428;53.194;6.132;2023-09-12T13:27:26;28.20;80.70
76567;DHT22;65428;53.194;6.132;2023-09-12T13:29:52;28.40;72.70
76567;DHT22;65428;53.194;6.132;2023-09-12T13:32:18;29.10;73.60
76567;DHT22;65428;53.194;6.132;2023-09-12T13:37:33;28.50;68.40
76567;DHT22;65428;53.194;6.132;2023-09-12T13:43:44;27.50;69.80
76567;DHT22;65428;53.194;6.132;2023-09-12T13:48:42;26.90;81.30
76567;DHT22;65428;53.194;6.132;2023-09-12T13:51:08;26.70;82.30
76567;DHT22;65428;53.194;6.132;2023-09-12T13:53:38;26.80;79.40
76567;DHT22;65428;53.194;6.132;2023-09-12T13:56:23;26.50;80.10
76567;DHT22;65428;53.194;6.132;2023-09-12T13:59:18;26.30;87.00
76567;DHT22;65428;53.194;6.132;2023-09-12T14:04:53;25.80;84.50
76567;DHT22;65428;53.194;6.132;2023-09-12T14:07:48;25.60;86.90
76567;DHT22;65428;53.194;6.132;2023-09-12T14:10:15;25.40;94.70
76567;DHT22;65428;53.194;6.132;2023-09-12T14:12:40;25.40;96.60
76567;DHT22;65428;53.194;6.132;2023-09-12T14:15:07;25.30;97.60
76567;DHT22;65428;53.194;6.132;2023-09-12T14:17:33;25.20;95.40
76567;DHT22;65428;53.194;6.132;2023-09-12T14:19:58;24.90;95.70
76567;DHT22;65428;53.194;6.132;2023-09-12T14:22:24;24.80;99.20
76567;DHT22;65428;53.194;6.132;2023-09-12T14:24:51;24.70;99.80
76567;DHT22;65428;53.194;6.132;2023-09-12T14:27:16;24.50;99.90
76567;DHT22;65428;53.194;6.132;2023-09-12T14:29:42;24.80;99.90
76567;DHT22;65428;53.194;6.132;2023-09-12T14:32:11;24.80;99.90
76567;DHT22;65428;53.194;6.132;2023-09-12T14:34:37;24.70;99.90
76567;DHT22;65428;53.194;6.132;2023-09-12T14:37:03;24.20;99.90
76567;DHT22;65428;53.194;6.132;2023-09-12T14:39:29;24.30;99.90
76567;DHT22;65428;53.194;6.132;2023-09-12T14:41:54;24.30;99.90
76567;DHT22;65428;53.194;6.132;2023-09-12T14:44:22;24.30;99.90
76567;DHT22;65428;53.194;6.132;2023-09-12T14:46:47;24.40;99.90
76567;DHT22;65428;53.194;6.132;2023-09-12T14:49:13;24.40;99.90
76567;DHT22;65428;53.194;6.132;2023-09-12T14:51:39;24.50;99.90
76567;DHT22;65428;53.194;6.132;2023-09-12T14:54:06;24.50;99.90
76567;DHT22;65428;53.194;6.132;2023-09-12T14:56:33;24.40;99.90
76567;DHT22;65428;53.194;6.132;2023-09-12T14:58:59;24.40;99.90
76567;DHT22;65428;53.194;6.132;2023-09-12T15:01:24;24.50;99.90
76567;DHT22;65428;53.194;6.132;2023-09-12T15:03:51;24.30;99.90
76567;DHT22;65428;53.194;6.132;2023-09-12T15:06:17;24.30;99.90
76567;DHT22;65428;53.194;6.132;2023-09-12T15:08:43;24.20;99.90
76567;DHT22;65428;53.194;6.132;2023-09-12T15:11:09;24.20;99.90
76567;DHT22;65428;53.194;6.132;2023-09-12T15:13:35;24.20;99.90
76567;DHT22;65428;53.194;6.132;2023-09-12T15:16:01;24.20;99.90
76567;DHT22;65428;53.194;6.132;2023-09-12T15:18:29;24.30;99.90
76567;DHT22;65428;53.194;6.132;2023-09-12T15:20:55;24.10;99.90
76567;DHT22;65428;53.194;6.132;2023-09-12T15:23:21;24.30;99.90
76567;DHT22;65428;53.194;6.132;2023-09-12T15:25:56;24.50;99.90
76567;DHT22;65428;53.194;6.132;2023-09-12T15:28:22;24.60;99.90
76567;DHT22;65428;53.194;6.132;2023-09-12T15:30:48;24.00;99.90
76567;DHT22;65428;53.194;6.132;2023-09-12T15:33:14;23.90;99.90
76567;DHT22;65428;53.194;6.132;2023-09-12T15:35:39;23.80;99.90
76567;DHT22;65428;53.194;6.132;2023-09-12T15:38:05;23.70;99.90
76567;DHT22;65428;53.194;6.132;2023-09-12T15:40:34;23.60;99.90
76567;DHT22;65428;53.194;6.132;2023-09-12T15:43:02;23.50;99.90
76567;DHT22;65428;53.194;6.132;2023-09-12T15:45:29;23.50;99.90
76567;DHT22;65428;53.194;6.132;2023-09-12T15:47:56;23.50;99.90
76567;DHT22;65428;53.194;6.132;2023-09-12T15:50:31;23.50;99.90
76567;DHT22;65428;53.194;6.132;2023-09-12T15:53:06;24.00;99.90
76567;DHT22;65428;53.194;6.132;2023-09-12T15:55:59;23.10;99.90
76567;DHT22;65428;53.194;6.132;2023-09-12T15:58:25;23.30;99.90
76567;DHT22;65428;53.194;6.132;2023-09-12T16:00:57;23.20;99.90